This is the latest recevied weather packets stored in our database for station/object HS9UAC-10. If no packets are shown the sender has not sent any weather packets the latest 1 day(s).
| Time | Temp. | Humidity | Pressure | Rain* | Wind** | Luminosity | Snow |
|---|---|---|---|---|---|---|---|
| 1777994565 | 33.89° C | 75% | 1007 hPa | - | 0 m/s | 0 W/m² | - |
| 1777993640 | 34.44° C | 71% | 1007 hPa | - | 0 m/s | 0 W/m² | - |
| 1777992716 | 35° C | 67% | 1007 hPa | - | 0 m/s | 0 W/m² | - |
| 1777991791 | 36.11° C | 62% | 1007 hPa | - | 0 m/s | 0 W/m² | - |
| 1777990866 | 35.56° C | 63% | 1007 hPa | - | 0 m/s | 0 W/m² | - |
| 1777989942 | 36.11° C | 63% | 1007 hPa | - | 0 m/s | 0 W/m² | - |
| 1777989017 | 36.11° C | 64% | 1006 hPa | - | 0 m/s | 0 W/m² | - |
| 1777988092 | 36.11° C | 64% | 1006 hPa | - | 0 m/s | 0 W/m² | - |
| 1777987168 | 36.11° C | 64% | 1006 hPa | - | 0 m/s | 0 W/m² | - |
| 1777986243 | 36.11° C | 63% | 1006 hPa | - | 0 m/s | 0 W/m² | - |
| 1777985318 | 35° C | 66% | 1006 hPa | - | 0 m/s | 0 W/m² | - |
| 1777984394 | 35° C | 68% | 1005 hPa | - | 0 m/s | 0 W/m² | - |
| 1777983469 | 35° C | 70% | 1005 hPa | - | 0 m/s | 0 W/m² | - |
| 1777982544 | 36.67° C | 61% | 1005 hPa | - | 0 m/s | 0 W/m² | - |
| 1777981620 | 36.67° C | 60% | 1005 hPa | - | 0 m/s | 0 W/m² | - |
| 1777980695 | 36.67° C | 58% | 1005 hPa | - | 0 m/s | 0 W/m² | - |
| 1777979771 | 36.67° C | 57% | 1004 hPa | - | 0 m/s | 0 W/m² | - |
| 1777978846 | 37.22° C | 55% | 1004 hPa | - | 0 m/s | 0 W/m² | - |
| 1777977922 | 38.33° C | 52% | 1004 hPa | - | 0 m/s | 0 W/m² | - |
| 1777976997 | 38.33° C | 50% | 1004 hPa | - | 0 m/s | 0 W/m² | - |
| 1777976073 | 38.33° C | 50% | 1004 hPa | - | 0 m/s | 0 W/m² | - |
* Rain since midnight (hover to see other rain measurements)
** Current wind speed in m/s (hover to see current wind gust speed)